createdAt,value
2018-11-20T00:00:17.341Z,20.61
2018-11-20T00:02:43.566Z,20.59
2018-11-20T00:05:09.548Z,20.59
2018-11-20T00:07:35.436Z,20.58
2018-11-20T00:10:01.388Z,20.59
2018-11-20T00:12:27.316Z,20.63
2018-11-20T00:14:53.240Z,20.63
2018-11-20T00:17:19.198Z,20.65
2018-11-20T00:19:45.156Z,20.65
2018-11-20T00:22:11.096Z,20.66
2018-11-20T00:24:37.014Z,20.68
2018-11-20T00:27:03.013Z,20.66
2018-11-20T00:29:28.978Z,20.64
2018-11-20T00:31:54.969Z,20.63
2018-11-20T00:34:20.923Z,20.62
2018-11-20T00:36:46.862Z,20.61
2018-11-20T00:39:12.800Z,20.60
2018-11-20T00:41:38.726Z,20.59
2018-11-20T00:44:04.665Z,20.56
2018-11-20T00:46:30.620Z,20.55
2018-11-20T00:48:56.544Z,20.54
2018-11-20T00:51:22.497Z,20.55
2018-11-20T00:53:48.425Z,20.54
2018-11-20T00:56:14.816Z,20.56
2018-11-20T00:58:40.735Z,20.57
2018-11-20T01:01:06.658Z,20.57
2018-11-20T01:03:32.591Z,20.59
2018-11-20T01:05:58.521Z,20.59
2018-11-20T01:08:24.451Z,20.58
2018-11-20T01:10:50.403Z,20.59
2018-11-20T01:13:16.328Z,20.56
2018-11-20T01:15:42.269Z,20.57
2018-11-20T01:18:08.285Z,20.55
2018-11-20T01:20:34.317Z,20.56
2018-11-20T01:23:00.244Z,20.55
2018-11-20T01:25:26.162Z,20.54
2018-11-20T01:27:52.226Z,20.53
2018-11-20T01:30:18.180Z,20.53
2018-11-20T01:32:44.134Z,20.51
2018-11-20T01:35:10.068Z,20.50
2018-11-20T01:37:35.993Z,20.51
2018-11-20T01:40:01.921Z,20.49
2018-11-20T01:42:27.843Z,20.50
2018-11-20T01:44:53.774Z,20.51
2018-11-20T01:47:19.700Z,20.51
2018-11-20T01:49:45.843Z,20.49
2018-11-20T01:52:11.764Z,20.50
2018-11-20T01:54:37.689Z,20.48
2018-11-20T01:57:03.756Z,20.50
2018-11-20T01:59:29.690Z,20.48
2018-11-20T02:01:55.616Z,20.49
2018-11-20T02:04:21.556Z,20.47
2018-11-20T02:06:47.490Z,20.48
2018-11-20T02:09:13.416Z,20.49
2018-11-20T02:11:39.338Z,20.49
2018-11-20T02:14:05.303Z,20.48
2018-11-20T02:16:31.228Z,20.48
2018-11-20T02:18:57.198Z,20.50
2018-11-20T02:21:23.089Z,20.49
2018-11-20T02:23:49.087Z,20.49
2018-11-20T02:26:15.021Z,20.47
2018-11-20T02:28:40.985Z,20.49
2018-11-20T02:31:06.937Z,20.49
2018-11-20T02:33:32.874Z,20.51
2018-11-20T02:35:58.790Z,20.52
2018-11-20T02:38:24.814Z,20.52
2018-11-20T02:40:50.743Z,20.54
2018-11-20T02:43:16.670Z,20.55
2018-11-20T02:45:42.979Z,20.57
2018-11-20T02:48:08.907Z,20.58
2018-11-20T02:50:34.829Z,20.58
2018-11-20T02:53:00.762Z,20.60
2018-11-20T02:55:26.723Z,20.60
2018-11-20T02:57:52.677Z,20.63
2018-11-20T03:00:18.596Z,20.64
2018-11-20T03:02:44.532Z,20.63
2018-11-20T03:05:10.495Z,20.62
2018-11-20T03:07:36.428Z,20.62
2018-11-20T03:10:02.391Z,20.60
2018-11-20T03:12:28.316Z,20.57
2018-11-20T03:14:54.258Z,20.55
2018-11-20T03:17:20.195Z,20.56
2018-11-20T03:19:46.268Z,20.59
2018-11-20T03:22:12.202Z,20.60
2018-11-20T03:24:38.129Z,20.62
2018-11-20T03:27:04.090Z,20.63
2018-11-20T03:29:30.095Z,20.63
2018-11-20T03:31:56.002Z,20.63
2018-11-20T03:34:22.004Z,20.61
2018-11-20T03:36:48.059Z,20.62
2018-11-20T03:39:13.983Z,20.59
2018-11-20T03:41:39.952Z,20.57
2018-11-20T03:44:05.901Z,20.57
2018-11-20T03:46:31.828Z,20.56
2018-11-20T03:48:57.794Z,20.55
2018-11-20T03:51:23.755Z,20.56
2018-11-20T03:53:49.676Z,20.55
2018-11-20T03:56:15.609Z,20.56
2018-11-20T03:58:41.529Z,20.57
2018-11-20T04:01:07.454Z,20.57
2018-11-20T04:03:33.379Z,20.54
2018-11-20T04:05:59.303Z,20.57
2018-11-20T04:08:25.254Z,20.58
2018-11-20T04:10:51.183Z,20.60
2018-11-20T04:13:17.170Z,20.60
2018-11-20T04:15:43.091Z,20.60
2018-11-20T04:18:09.022Z,20.62
2018-11-20T04:20:34.942Z,20.63
2018-11-20T04:23:00.875Z,20.62
2018-11-20T04:25:26.835Z,20.61
2018-11-20T04:27:52.754Z,20.60
2018-11-20T04:30:18.680Z,20.61
2018-11-20T04:32:44.602Z,20.60
2018-11-20T04:35:10.632Z,20.61
2018-11-20T04:37:36.608Z,20.60
2018-11-20T04:40:02.527Z,20.60
2018-11-20T04:42:28.597Z,20.57
2018-11-20T04:44:54.524Z,20.58
2018-11-20T04:47:20.461Z,20.57
2018-11-20T04:49:46.636Z,20.58
2018-11-20T04:52:12.570Z,20.58
2018-11-20T04:54:38.510Z,20.58
2018-11-20T04:57:04.450Z,20.62
2018-11-20T04:59:30.388Z,20.63
2018-11-20T05:01:56.300Z,20.64
2018-11-20T05:04:22.310Z,20.65
2018-11-20T05:06:48.337Z,20.66
2018-11-20T05:09:14.188Z,20.66
2018-11-20T05:11:40.293Z,20.65
2018-11-20T05:14:06.253Z,20.63
2018-11-20T05:16:32.206Z,20.61
2018-11-20T05:18:58.165Z,20.59
2018-11-20T05:21:24.109Z,20.62
2018-11-20T05:23:50.113Z,20.62
2018-11-20T05:26:16.041Z,20.62
2018-11-20T05:28:41.974Z,20.62
2018-11-20T05:31:08.043Z,20.62
2018-11-20T05:33:33.927Z,20.63
2018-11-20T05:35:59.849Z,20.61
2018-11-20T05:38:25.792Z,20.60
2018-11-20T05:40:51.711Z,20.59
2018-11-20T05:43:17.952Z,20.63
2018-11-20T05:45:43.882Z,20.66
2018-11-20T05:48:09.803Z,20.67
2018-11-20T05:50:35.756Z,20.68
2018-11-20T05:53:01.701Z,20.68
2018-11-20T05:55:27.626Z,20.68
2018-11-20T05:57:53.737Z,20.67
2018-11-20T06:00:19.620Z,20.65
2018-11-20T06:02:45.550Z,20.66
2018-11-20T06:05:11.533Z,20.61
2018-11-20T06:07:37.492Z,20.63
2018-11-20T06:10:03.421Z,20.64
2018-11-20T06:12:29.427Z,20.64
2018-11-20T06:14:55.347Z,20.64
2018-11-20T06:17:21.306Z,20.64
2018-11-20T06:19:47.254Z,20.63
2018-11-20T06:22:13.165Z,20.62
2018-11-20T06:24:39.113Z,20.63
2018-11-20T06:27:05.088Z,20.62
2018-11-20T06:29:31.048Z,20.66
2018-11-20T06:31:56.972Z,20.66
2018-11-20T06:34:22.978Z,20.67
2018-11-20T06:36:48.890Z,20.68
2018-11-20T06:39:14.834Z,20.69
2018-11-20T06:41:40.768Z,20.69
2018-11-20T06:44:06.927Z,20.67
2018-11-20T06:46:32.850Z,20.66
2018-11-20T06:48:58.804Z,20.69
2018-11-20T06:51:24.745Z,20.67
2018-11-20T06:53:50.682Z,20.66
2018-11-20T06:56:16.649Z,20.66
2018-11-20T06:58:42.646Z,20.65
2018-11-20T07:01:08.599Z,20.65
2018-11-20T07:03:34.552Z,20.63
2018-11-20T07:06:00.575Z,20.63
2018-11-20T07:08:26.617Z,20.64
2018-11-20T07:10:52.486Z,20.63
2018-11-20T07:13:18.510Z,20.63
2018-11-20T07:15:44.592Z,20.64
2018-11-20T07:18:10.360Z,20.68
2018-11-20T07:20:36.292Z,20.66
2018-11-20T07:23:02.261Z,20.68
2018-11-20T07:25:28.170Z,20.70
2018-11-20T07:27:54.348Z,20.69
2018-11-20T07:30:20.385Z,20.68
2018-11-20T07:32:46.213Z,20.68
2018-11-20T07:35:12.144Z,20.67
2018-11-20T07:37:38.110Z,20.67
2018-11-20T07:40:04.060Z,20.66
2018-11-20T07:42:29.989Z,20.66
2018-11-20T07:44:55.929Z,20.65
2018-11-20T07:47:21.843Z,20.63
2018-11-20T07:49:47.851Z,20.65
2018-11-20T07:52:13.787Z,20.65
2018-11-20T07:54:39.723Z,20.66
2018-11-20T07:57:05.666Z,20.65
2018-11-20T07:59:31.630Z,20.65
2018-11-20T08:01:57.602Z,20.66
2018-11-20T08:04:23.511Z,20.65
2018-11-20T08:06:49.447Z,20.67
2018-11-20T08:09:15.400Z,20.67
2018-11-20T08:11:41.327Z,20.67
2018-11-20T08:14:07.278Z,20.69
2018-11-20T08:16:33.221Z,20.70
2018-11-20T08:18:59.187Z,20.68
2018-11-20T08:21:25.105Z,20.71
2018-11-20T08:23:51.055Z,20.69
2018-11-20T08:26:17.190Z,20.67
2018-11-20T08:28:43.064Z,20.68
2018-11-20T08:31:09.093Z,20.68
2018-11-20T08:33:35.041Z,20.66
2018-11-20T08:36:00.943Z,20.66
2018-11-20T08:38:26.872Z,20.66
2018-11-20T08:40:52.823Z,20.67
2018-11-20T08:43:18.766Z,20.66
2018-11-20T08:45:44.723Z,20.66
2018-11-20T08:48:10.691Z,20.66
2018-11-20T08:50:36.624Z,20.68
2018-11-20T08:53:02.607Z,20.69
2018-11-20T08:55:28.550Z,20.70
2018-11-20T08:57:54.615Z,20.70
2018-11-20T09:00:20.542Z,20.70
2018-11-20T09:05:12.405Z,20.76
2018-11-20T09:07:38.404Z,20.74
2018-11-20T09:10:04.352Z,20.79
2018-11-20T09:12:30.235Z,20.79
2018-11-20T09:14:56.169Z,20.82
2018-11-20T09:17:22.098Z,20.84
2018-11-20T09:19:48.363Z,20.84
2018-11-20T09:22:14.320Z,20.85
2018-11-20T09:24:40.283Z,20.87
2018-11-20T09:27:06.214Z,20.86
2018-11-20T09:29:32.145Z,20.85
2018-11-20T09:31:58.086Z,20.86
2018-11-20T09:34:24.065Z,20.87
2018-11-20T09:36:49.961Z,20.89
2018-11-20T09:39:15.956Z,20.87
2018-11-20T09:41:41.884Z,20.88
2018-11-20T09:44:07.843Z,20.89
2018-11-20T09:46:33.925Z,20.90
2018-11-20T09:48:59.785Z,20.88
2018-11-20T09:51:25.790Z,20.87
2018-11-20T09:53:51.772Z,20.88
2018-11-20T09:56:17.750Z,20.87
2018-11-20T09:58:43.671Z,20.84
2018-11-20T10:01:09.626Z,20.85
2018-11-20T10:03:35.598Z,20.83
2018-11-20T10:06:01.534Z,20.85
2018-11-20T10:08:27.537Z,20.81
2018-11-20T10:10:53.495Z,20.79
2018-11-20T10:13:19.431Z,20.78
2018-11-20T10:15:45.367Z,20.80
2018-11-20T10:18:11.290Z,20.82
2018-11-20T10:20:37.210Z,20.84
2018-11-20T10:23:03.216Z,20.78
2018-11-20T10:25:29.224Z,20.75
2018-11-20T10:27:55.078Z,20.76
2018-11-20T10:30:21.232Z,20.78
2018-11-20T10:32:47.174Z,20.79
2018-11-20T10:35:13.097Z,20.83
2018-11-20T10:37:39.118Z,20.83
2018-11-20T10:40:05.069Z,20.80
2018-11-20T10:42:31.011Z,20.79
2018-11-20T10:44:56.941Z,20.78
2018-11-20T10:47:22.905Z,20.78
2018-11-20T10:49:48.866Z,20.76
2018-11-20T10:52:15.021Z,20.75
2018-11-20T10:54:41.185Z,20.75
2018-11-20T10:57:07.112Z,20.75
2018-11-20T10:59:33.091Z,20.75
2018-11-20T11:01:59.109Z,20.78
2018-11-20T11:04:25.111Z,20.77
2018-11-20T11:06:51.232Z,20.79
2018-11-20T11:09:17.039Z,20.82
2018-11-20T11:11:43.129Z,20.85
2018-11-20T11:14:08.886Z,20.88
2018-11-20T11:16:34.823Z,20.92
2018-11-20T11:19:00.826Z,20.96
2018-11-20T11:21:26.839Z,20.98
2018-11-20T11:23:52.769Z,21.00
2018-11-20T11:26:18.736Z,21.03
2018-11-20T11:28:44.657Z,21.04
2018-11-20T11:31:10.740Z,21.06
2018-11-20T11:33:36.687Z,21.06
2018-11-20T11:36:02.617Z,21.06
2018-11-20T11:38:28.750Z,21.07
2018-11-20T11:40:54.680Z,21.09
2018-11-20T11:43:20.628Z,21.10
2018-11-20T11:45:46.607Z,21.10
2018-11-20T11:48:12.530Z,21.09
2018-11-20T11:50:38.469Z,21.09
2018-11-20T11:53:04.407Z,21.11
2018-11-20T11:55:30.448Z,21.11
2018-11-20T11:57:56.369Z,21.12
2018-11-20T12:00:22.328Z,21.16
2018-11-20T12:05:13.440Z,21.18
2018-11-20T12:07:39.370Z,21.18
2018-11-20T12:10:05.298Z,21.18
2018-11-20T12:12:31.241Z,21.17
2018-11-20T12:14:57.241Z,21.17
2018-11-20T12:17:24.292Z,21.11
2018-11-20T12:19:50.224Z,21.11
2018-11-20T12:22:16.150Z,21.06
2018-11-20T12:24:42.103Z,21.05
2018-11-20T12:27:08.038Z,21.03
2018-11-20T12:29:34.783Z,21.00
2018-11-20T12:31:59.921Z,20.97
2018-11-20T12:34:25.874Z,20.93
2018-11-20T12:36:51.794Z,20.92
2018-11-20T12:39:19.860Z,20.91
2018-11-20T12:41:44.420Z,20.89
2018-11-20T12:44:09.615Z,20.87
2018-11-20T12:46:35.595Z,20.89
2018-11-20T12:49:01.566Z,20.88
2018-11-20T12:51:27.554Z,20.89
2018-11-20T12:53:53.503Z,20.91
2018-11-20T12:56:19.460Z,20.91
2018-11-20T12:58:45.440Z,20.90
2018-11-20T13:01:11.576Z,20.90
2018-11-20T13:03:37.516Z,20.90
2018-11-20T13:06:03.455Z,20.91
2018-11-20T13:08:31.164Z,20.93
2018-11-20T13:10:55.373Z,20.93
2018-11-20T13:13:21.378Z,20.93
2018-11-20T13:15:49.430Z,20.95
2018-11-20T13:18:13.266Z,20.97
2018-11-20T13:20:39.209Z,20.98
2018-11-20T13:23:05.136Z,20.99
2018-11-20T13:25:31.071Z,21.01
2018-11-20T13:27:57.074Z,21.02
2018-11-20T13:30:23.108Z,21.05
2018-11-20T13:32:49.047Z,21.07
2018-11-20T13:35:15.233Z,21.08
2018-11-20T13:37:41.222Z,21.10
2018-11-20T13:40:07.157Z,21.12
2018-11-20T13:42:33.169Z,21.13
2018-11-20T13:44:59.196Z,21.15
2018-11-20T13:47:25.120Z,21.16
2018-11-20T13:49:51.995Z,21.15
2018-11-20T13:52:17.065Z,21.15
2018-11-20T13:54:43.085Z,21.18
2018-11-20T13:57:09.037Z,21.19
2018-11-20T13:59:34.973Z,21.20
2018-11-20T14:02:00.984Z,21.21
2018-11-20T14:04:26.920Z,21.21
2018-11-20T14:06:52.848Z,21.21
2018-11-20T14:09:18.774Z,21.19
2018-11-20T14:11:44.711Z,21.17
2018-11-20T14:14:10.705Z,21.17
2018-11-20T14:16:36.656Z,21.15
2018-11-20T14:19:02.618Z,21.15
2018-11-20T14:21:28.554Z,21.13
2018-11-20T14:23:54.478Z,21.14
2018-11-20T14:26:20.437Z,21.15
2018-11-20T14:28:46.356Z,21.15
2018-11-20T14:31:12.303Z,21.15
2018-11-20T14:33:38.293Z,21.13
2018-11-20T14:36:04.260Z,21.10
2018-11-20T14:38:30.220Z,21.08
2018-11-20T14:40:56.207Z,21.06
2018-11-20T14:43:22.169Z,21.05
2018-11-20T14:45:48.121Z,21.01
2018-11-20T14:48:14.109Z,21.03
2018-11-20T14:50:40.155Z,21.02
2018-11-20T14:53:06.105Z,21.02
2018-11-20T14:55:32.042Z,21.02
2018-11-20T14:57:57.982Z,21.03
2018-11-20T15:00:23.937Z,21.05
2018-11-20T15:02:49.879Z,21.07
2018-11-20T15:05:15.804Z,21.08
2018-11-20T15:07:41.758Z,21.10
2018-11-20T15:10:07.770Z,21.12
2018-11-20T15:12:33.706Z,21.13
2018-11-20T15:14:59.705Z,21.14
2018-11-20T15:17:25.636Z,21.12
2018-11-20T15:19:51.571Z,21.11
2018-11-20T15:22:17.664Z,21.10
2018-11-20T15:24:43.638Z,21.06
2018-11-20T15:27:09.591Z,21.04
2018-11-20T15:29:35.576Z,21.04
2018-11-20T15:32:01.537Z,21.01
2018-11-20T15:34:27.469Z,21.00
2018-11-20T15:36:53.439Z,20.96
2018-11-20T15:39:19.363Z,20.93
2018-11-20T15:41:45.289Z,20.93
2018-11-20T15:44:11.322Z,20.92
2018-11-20T15:46:37.251Z,20.92
2018-11-20T15:49:03.210Z,20.90
2018-11-20T15:51:29.142Z,20.87
2018-11-20T15:53:55.104Z,20.88
2018-11-20T15:56:21.041Z,20.86
2018-11-20T15:58:47.122Z,20.87
2018-11-20T16:01:13.059Z,20.89
2018-11-20T16:03:39.008Z,20.89
2018-11-20T16:06:04.947Z,20.88
2018-11-20T16:08:30.892Z,20.87
2018-11-20T16:10:56.833Z,20.85
2018-11-20T16:13:22.772Z,20.86
2018-11-20T16:15:48.780Z,20.86
2018-11-20T16:18:14.744Z,20.86
2018-11-20T16:20:40.676Z,20.86
2018-11-20T16:23:06.605Z,20.83
2018-11-20T16:25:32.610Z,20.82
2018-11-20T16:27:58.560Z,20.84
2018-11-20T16:30:24.494Z,20.82
2018-11-20T16:32:50.471Z,20.84
2018-11-20T16:35:16.392Z,20.81
2018-11-20T16:37:42.461Z,20.79
2018-11-20T16:40:08.481Z,20.79
2018-11-20T16:42:34.499Z,20.81
2018-11-20T16:45:00.426Z,20.80
2018-11-20T16:47:26.362Z,20.80
2018-11-20T16:49:52.380Z,20.81
2018-11-20T16:52:18.353Z,20.81
2018-11-20T16:54:44.316Z,20.80
2018-11-20T16:57:10.244Z,20.81
2018-11-20T16:59:36.308Z,20.85
2018-11-20T17:02:02.249Z,20.82
2018-11-20T17:04:28.230Z,20.84
2018-11-20T17:06:54.271Z,20.80
2018-11-20T17:09:20.210Z,20.78
2018-11-20T17:11:46.146Z,20.75
2018-11-20T17:14:12.155Z,20.73
2018-11-20T17:16:38.089Z,20.73
2018-11-20T17:19:04.046Z,20.72
2018-11-20T17:21:30.000Z,20.72
2018-11-20T17:23:55.936Z,20.73
2018-11-20T17:26:21.886Z,20.72
2018-11-20T17:28:47.842Z,20.74
2018-11-20T17:31:13.859Z,20.73
2018-11-20T17:33:39.838Z,20.75
2018-11-20T17:36:05.766Z,20.79
2018-11-20T17:38:31.746Z,20.81
2018-11-20T17:40:57.794Z,20.82
2018-11-20T17:43:23.736Z,20.80
2018-11-20T17:45:49.721Z,20.83
2018-11-20T17:48:15.616Z,20.80
2018-11-20T17:50:41.543Z,20.78
2018-11-20T17:53:07.501Z,20.77
2018-11-20T17:55:33.447Z,20.75
2018-11-20T17:57:59.427Z,20.76
2018-11-20T18:00:25.425Z,20.75
2018-11-20T18:02:51.392Z,20.76
2018-11-20T18:05:17.326Z,20.75
2018-11-20T18:07:43.357Z,20.74
2018-11-20T18:10:09.327Z,20.73
2018-11-20T18:12:35.360Z,20.72
2018-11-20T18:15:01.243Z,20.74
2018-11-20T18:17:27.242Z,20.74
2018-11-20T18:19:53.190Z,20.74
2018-11-20T18:22:19.261Z,20.76
2018-11-20T18:24:45.197Z,20.81
2018-11-20T18:27:18.541Z,20.82
2018-11-20T18:29:37.112Z,20.83
2018-11-20T18:32:03.080Z,20.80
2018-11-20T18:34:29.083Z,20.80
2018-11-20T18:36:55.003Z,20.80
2018-11-20T18:39:20.949Z,20.79
2018-11-20T18:41:46.923Z,20.78
2018-11-20T18:44:12.894Z,20.78
2018-11-20T18:46:38.858Z,20.75
2018-11-20T18:49:04.915Z,20.75
2018-11-20T18:51:30.893Z,20.75
2018-11-20T18:53:56.844Z,20.75
2018-11-20T18:56:22.988Z,20.76
2018-11-20T18:58:49.103Z,20.76
2018-11-20T19:01:15.034Z,20.76
2018-11-20T19:03:40.986Z,20.79
2018-11-20T19:06:06.956Z,20.80
2018-11-20T19:08:32.967Z,20.79
2018-11-20T19:10:58.922Z,20.83
2018-11-20T19:13:25.020Z,20.83
2018-11-20T19:15:50.983Z,20.83
2018-11-20T19:18:16.905Z,20.84
2018-11-20T19:20:42.819Z,20.82
2018-11-20T19:23:08.854Z,20.83
2018-11-20T19:25:34.790Z,20.84
2018-11-20T19:28:00.716Z,20.84
2018-11-20T19:30:26.734Z,20.82
2018-11-20T19:32:52.762Z,20.82
2018-11-20T19:35:18.771Z,20.82
2018-11-20T19:37:44.835Z,20.81
2018-11-20T19:40:10.862Z,20.82
2018-11-20T19:42:36.865Z,20.83
2018-11-20T19:45:02.806Z,20.81
2018-11-20T19:47:28.830Z,20.83
2018-11-20T19:49:54.886Z,20.81
2018-11-20T19:52:20.816Z,20.82
2018-11-20T19:54:46.762Z,20.83
2018-11-20T19:57:12.723Z,20.86
2018-11-20T19:59:39.676Z,20.87
2018-11-20T20:02:05.628Z,20.88
2018-11-20T20:04:31.558Z,20.87
2018-11-20T20:06:57.514Z,20.87
2018-11-20T20:09:23.522Z,20.87
2018-11-20T20:11:50.466Z,20.85
2018-11-20T20:14:17.398Z,20.84
2018-11-20T20:16:43.474Z,20.84
2018-11-20T20:19:09.694Z,20.81
2018-11-20T20:21:35.634Z,20.82
2018-11-20T20:24:01.633Z,20.83
2018-11-20T20:26:27.578Z,20.82
2018-11-20T20:28:53.524Z,20.83
2018-11-20T20:31:19.547Z,20.81
2018-11-20T20:33:45.666Z,20.81
2018-11-20T20:36:11.877Z,20.81
2018-11-20T20:38:37.891Z,20.82
2018-11-20T20:41:03.833Z,20.85
2018-11-20T20:43:29.843Z,20.87
2018-11-20T20:45:56.818Z,20.88
2018-11-20T20:48:22.830Z,20.87
2018-11-20T20:50:48.764Z,20.88
2018-11-20T20:53:14.916Z,20.88
2018-11-20T20:55:40.851Z,20.88
2018-11-20T20:58:06.812Z,20.88
2018-11-20T21:00:32.757Z,20.86
2018-11-20T21:02:58.833Z,20.84
2018-11-20T21:05:24.765Z,20.84
2018-11-20T21:07:50.763Z,20.84
2018-11-20T21:10:16.737Z,20.82
2018-11-20T21:12:42.668Z,20.81
2018-11-20T21:15:08.627Z,20.78
2018-11-20T21:18:10.744Z,20.85
2018-11-20T21:20:36.697Z,20.78
2018-11-20T21:23:02.638Z,20.78
2018-11-20T21:25:28.572Z,20.76
2018-11-20T21:27:54.529Z,20.80
2018-11-20T21:30:20.488Z,20.79
2018-11-20T21:32:46.435Z,20.81
2018-11-20T21:35:13.491Z,20.83
2018-11-20T21:37:39.422Z,20.84
2018-11-20T21:40:05.459Z,20.83
2018-11-20T21:42:31.393Z,20.83
2018-11-20T21:44:57.336Z,20.79
2018-11-20T21:47:23.348Z,20.78
2018-11-20T21:49:49.376Z,20.76
2018-11-20T21:52:15.336Z,20.77
2018-11-20T21:54:41.555Z,20.76
2018-11-20T21:57:07.511Z,20.75
2018-11-20T21:59:33.458Z,20.74
2018-11-20T22:01:59.406Z,20.73
2018-11-20T22:04:25.389Z,20.71
2018-11-20T22:06:51.377Z,20.70
2018-11-20T22:09:17.361Z,20.70
2018-11-20T22:11:43.272Z,20.69
2018-11-20T22:14:09.198Z,20.71
2018-11-20T22:16:35.131Z,20.71
2018-11-20T22:19:01.061Z,20.75
2018-11-20T22:21:27.025Z,20.73
2018-11-20T22:23:52.970Z,20.74
2018-11-20T22:26:18.897Z,20.74
2018-11-20T22:28:44.829Z,20.73
2018-11-20T22:31:10.748Z,20.72
2018-11-20T22:33:36.699Z,20.71
2018-11-20T22:36:02.619Z,20.70
2018-11-20T22:38:28.719Z,20.69
2018-11-20T22:40:54.644Z,20.67
2018-11-20T22:43:20.594Z,20.65
2018-11-20T22:45:46.529Z,20.66
2018-11-20T22:48:12.476Z,20.64
2018-11-20T22:50:38.478Z,20.65
2018-11-20T22:53:04.440Z,20.66
2018-11-20T22:55:30.360Z,20.66
2018-11-20T22:57:56.348Z,20.66
2018-11-20T23:00:22.291Z,20.66
2018-11-20T23:02:48.257Z,20.67
2018-11-20T23:05:14.200Z,20.68
2018-11-20T23:07:40.113Z,20.70
2018-11-20T23:10:06.038Z,20.69
2018-11-20T23:12:32.012Z,20.70
2018-11-20T23:14:57.943Z,20.70
2018-11-20T23:17:23.890Z,20.69
2018-11-20T23:19:49.800Z,20.69
2018-11-20T23:22:15.750Z,20.68
2018-11-20T23:24:41.811Z,20.67
2018-11-20T23:27:08.386Z,20.65
2018-11-20T23:29:33.698Z,20.64
2018-11-20T23:31:59.839Z,20.63
2018-11-20T23:34:25.893Z,20.62
2018-11-20T23:36:52.040Z,20.61
2018-11-20T23:39:17.991Z,20.59
2018-11-20T23:41:43.916Z,20.59
2018-11-20T23:44:09.859Z,20.59
2018-11-20T23:46:35.826Z,20.60
2018-11-20T23:49:01.931Z,20.59
2018-11-20T23:51:27.896Z,20.60
2018-11-20T23:53:53.876Z,20.60
2018-11-20T23:56:19.840Z,20.61
2018-11-20T23:58:45.778Z,20.63
